createdAt,value
2022-11-15T00:00:26.579Z,8.30
2022-11-15T00:04:49.579Z,8.20
2022-11-15T00:09:14.360Z,8.00
2022-11-15T00:13:40.872Z,8.00
2022-11-15T00:18:02.096Z,8.00
2022-11-15T00:22:34.385Z,7.90
2022-11-15T00:26:56.936Z,7.80
2022-11-15T00:31:20.335Z,7.80
2022-11-15T00:35:47.361Z,7.80
2022-11-15T00:40:11.562Z,7.90
2022-11-15T00:44:33.603Z,7.80
2022-11-15T00:48:58.753Z,7.70
2022-11-15T00:53:20.905Z,7.60
2022-11-15T00:57:42.402Z,7.60
2022-11-15T01:02:03.543Z,7.50
2022-11-15T01:06:24.616Z,7.50
2022-11-15T01:10:48.230Z,7.50
2022-11-15T01:15:12.729Z,7.50
2022-11-15T01:19:34.259Z,7.40
2022-11-15T01:23:57.178Z,7.30
2022-11-15T01:28:19.054Z,7.30
2022-11-15T01:32:40.457Z,7.40
2022-11-15T01:37:02.561Z,7.40
2022-11-15T01:41:32.907Z,7.50
2022-11-15T01:46:02.095Z,7.50
2022-11-15T01:50:32.315Z,7.50
2022-11-15T01:55:12.258Z,7.50
2022-11-15T01:59:34.197Z,7.50
2022-11-15T02:04:11.288Z,7.50
2022-11-15T02:08:32.634Z,7.60
2022-11-15T02:12:56.629Z,7.60
2022-11-15T02:17:26.729Z,7.60
2022-11-15T02:22:10.486Z,7.60
2022-11-15T02:27:01.845Z,7.60
2022-11-15T02:31:37.445Z,7.70
2022-11-15T02:36:03.957Z,7.70
2022-11-15T02:40:34.620Z,7.90
2022-11-15T02:44:57.862Z,7.90
2022-11-15T02:49:20.718Z,7.80
2022-11-15T02:53:42.528Z,7.90
2022-11-15T02:58:22.790Z,8.00
2022-11-15T03:03:02.917Z,8.00
2022-11-15T03:07:44.240Z,8.10
2022-11-15T03:12:13.020Z,8.10
2022-11-15T03:16:58.694Z,8.10
2022-11-15T03:21:22.163Z,8.00
2022-11-15T03:25:49.536Z,8.10
2022-11-15T03:30:11.453Z,8.10
2022-11-15T03:34:44.270Z,8.20
2022-11-15T03:39:09.550Z,8.30
2022-11-15T03:43:42.264Z,8.30
2022-11-15T03:48:11.318Z,8.40
2022-11-15T03:52:34.740Z,8.50
2022-11-15T03:56:56.373Z,8.50
2022-11-15T04:01:17.998Z,8.40
2022-11-15T04:05:39.095Z,8.50
2022-11-15T04:10:03.154Z,8.50
2022-11-15T04:14:24.452Z,8.50
2022-11-15T04:18:45.529Z,8.50
2022-11-15T04:23:29.615Z,8.50
2022-11-15T04:27:51.564Z,8.50
2022-11-15T04:32:12.709Z,8.50
2022-11-15T04:36:52.584Z,8.50
2022-11-15T04:41:24.582Z,8.50
2022-11-15T04:45:50.982Z,8.50
2022-11-15T04:50:29.836Z,8.50
2022-11-15T04:54:52.654Z,8.50
2022-11-15T04:59:15.114Z,8.50
2022-11-15T05:03:58.769Z,8.50
2022-11-15T05:08:20.936Z,8.50
2022-11-15T05:12:52.248Z,8.50
2022-11-15T05:17:14.553Z,8.50
2022-11-15T05:21:38.922Z,8.50
2022-11-15T05:26:07.901Z,8.50
2022-11-15T05:30:31.165Z,8.50
2022-11-15T05:34:53.129Z,8.50
2022-11-15T05:39:24.267Z,8.50
2022-11-15T05:43:52.459Z,8.40
2022-11-15T05:48:22.842Z,8.40
2022-11-15T05:53:03.647Z,8.50
2022-11-15T05:57:31.109Z,8.50
2022-11-15T06:02:31.914Z,8.50
2022-11-15T06:07:07.402Z,8.60
2022-11-15T06:11:42.362Z,8.60
2022-11-15T06:16:07.885Z,8.60
2022-11-15T06:20:34.836Z,8.60
2022-11-15T06:25:20.524Z,8.70
2022-11-15T06:29:53.600Z,8.70
2022-11-15T06:34:16.358Z,8.70
2022-11-15T06:38:39.020Z,8.90
2022-11-15T06:43:03.840Z,8.90
2022-11-15T07:00:51.924Z,9.00
2022-11-15T07:06:07.505Z,9.10
2022-11-15T07:11:15.676Z,9.20
2022-11-15T07:15:38.722Z,9.20
2022-11-15T07:20:16.218Z,9.20
2022-11-15T07:25:04.800Z,9.30
2022-11-15T07:30:18.261Z,9.20
2022-11-15T07:35:54.681Z,9.20
2022-11-15T07:40:41.594Z,9.30
2022-11-15T07:45:24.648Z,9.30
2022-11-15T07:50:04.657Z,9.30
2022-11-15T07:54:51.773Z,9.30
2022-11-15T07:59:55.954Z,9.40
2022-11-15T08:10:58.207Z,9.50
2022-11-15T08:40:48.239Z,9.80
2022-11-15T08:51:57.004Z,9.80
2022-11-15T09:10:24.181Z,9.90
2022-11-15T09:20:38.024Z,10.00
2022-11-15T09:38:22.828Z,10.10
2022-11-15T10:50:52.092Z,10.60
2022-11-15T11:42:31.660Z,10.60
2022-11-15T11:47:00.723Z,10.70
2022-11-15T11:51:16.238Z,10.70
2022-11-15T11:55:32.567Z,10.80
2022-11-15T11:59:46.530Z,10.80
2022-11-15T12:03:55.849Z,10.80
2022-11-15T12:08:10.901Z,10.80
2022-11-15T12:12:26.178Z,10.90
2022-11-15T12:16:33.327Z,11.00
2022-11-15T12:20:41.341Z,11.00
2022-11-15T12:24:47.020Z,11.00
2022-11-15T12:29:09.179Z,11.00
2022-11-15T12:33:37.600Z,11.00
2022-11-15T12:37:41.541Z,11.10
2022-11-15T12:47:23.415Z,11.20
2022-11-15T12:51:47.966Z,11.10
2022-11-15T12:56:23.947Z,11.20
2022-11-15T13:00:34.861Z,11.20
2022-11-15T13:04:41.357Z,11.20
2022-11-15T13:08:51.952Z,11.20
2022-11-15T13:13:31.155Z,11.10
2022-11-15T13:23:21.433Z,11.20
2022-11-15T13:27:26.478Z,11.30
2022-11-15T13:31:38.641Z,11.20
2022-11-15T13:35:42.976Z,11.20
2022-11-15T13:39:46.073Z,11.20
2022-11-15T13:43:51.456Z,11.20
2022-11-15T13:47:59.001Z,11.20
2022-11-15T13:52:07.986Z,11.20
2022-11-15T13:56:11.120Z,11.30
2022-11-15T14:00:39.968Z,11.30
2022-11-15T14:04:59.135Z,11.30
2022-11-15T14:09:10.997Z,11.30
2022-11-15T14:13:30.031Z,11.30
2022-11-15T14:17:37.080Z,11.40
2022-11-15T14:22:10.702Z,11.30
2022-11-15T14:26:36.869Z,11.20
2022-11-15T14:30:41.082Z,11.20
2022-11-15T14:35:01.488Z,11.20
2022-11-15T14:39:06.296Z,11.20
2022-11-15T14:43:13.669Z,11.10
2022-11-15T14:47:17.041Z,11.10
2022-11-15T14:51:20.369Z,11.20
2022-11-15T14:55:28.651Z,11.30
2022-11-15T14:59:31.672Z,11.40
2022-11-15T15:03:34.784Z,11.30
2022-11-15T15:07:37.991Z,11.30
2022-11-15T15:11:41.065Z,11.40
2022-11-15T15:15:44.252Z,11.30
2022-11-15T15:19:47.518Z,11.40
2022-11-15T15:23:50.727Z,11.40
2022-11-15T15:27:53.935Z,11.40
2022-11-15T15:31:56.957Z,11.40
2022-11-15T15:36:00.572Z,11.30
2022-11-15T15:40:03.584Z,11.30
2022-11-15T15:44:07.803Z,11.30
2022-11-15T15:48:14.261Z,11.40
2022-11-15T15:52:17.629Z,11.40
2022-11-15T15:56:20.525Z,11.40
2022-11-15T16:00:25.804Z,11.40
2022-11-15T16:04:29.663Z,11.50
2022-11-15T16:08:47.619Z,11.50
2022-11-15T16:12:57.103Z,11.40
2022-11-15T16:17:00.080Z,11.50
2022-11-15T16:21:03.642Z,11.50
2022-11-15T16:25:08.094Z,11.50
2022-11-15T16:29:14.739Z,11.60
2022-11-15T16:33:45.758Z,11.50
2022-11-15T16:37:51.405Z,11.50
2022-11-15T16:41:54.586Z,11.50
2022-11-15T16:45:57.597Z,11.50
2022-11-15T16:51:09.998Z,11.50
2022-11-15T16:55:30.334Z,11.40
2022-11-15T16:59:38.195Z,11.30
2022-11-15T17:03:41.564Z,11.30
2022-11-15T17:07:47.000Z,11.30
2022-11-15T17:11:50.156Z,11.40
2022-11-15T17:16:05.162Z,11.50
2022-11-15T17:20:16.509Z,11.50
2022-11-15T17:24:26.344Z,11.50
2022-11-15T17:33:45.912Z,11.50
2022-11-15T17:37:49.088Z,11.60
2022-11-15T17:42:06.615Z,11.60
2022-11-15T17:46:24.633Z,11.50
2022-11-15T17:50:30.790Z,11.50
2022-11-15T17:54:34.011Z,11.50
2022-11-15T17:58:40.565Z,11.50
2022-11-15T18:02:43.421Z,11.60
2022-11-15T18:06:46.780Z,11.70
2022-11-15T18:10:49.849Z,11.60
2022-11-15T18:14:53.742Z,11.60
2022-11-15T18:18:59.576Z,11.60
2022-11-15T18:23:02.668Z,11.60
2022-11-15T18:27:07.361Z,11.60
2022-11-15T18:31:17.505Z,11.60
2022-11-15T18:35:21.172Z,11.60
2022-11-15T18:39:42.381Z,11.60
2022-11-15T18:44:11.477Z,11.50
2022-11-15T18:48:40.457Z,11.60
2022-11-15T18:52:46.025Z,11.60
2022-11-15T18:57:04.134Z,11.60
2022-11-15T19:01:10.967Z,11.70
2022-11-15T19:05:21.467Z,11.70
2022-11-15T19:09:27.340Z,11.70
2022-11-15T19:13:30.235Z,11.70
2022-11-15T19:17:33.187Z,11.60
2022-11-15T19:21:36.027Z,11.60
2022-11-15T19:25:39.280Z,11.70
2022-11-15T19:29:45.626Z,11.80
2022-11-15T19:33:55.237Z,11.70
2022-11-15T19:38:01.077Z,11.60
2022-11-15T19:42:18.424Z,11.60
2022-11-15T19:46:39.060Z,11.60
2022-11-15T19:50:55.464Z,11.60
2022-11-15T19:54:58.460Z,11.50
2022-11-15T19:59:14.897Z,11.50
2022-11-15T20:07:49.299Z,11.60
2022-11-15T20:11:57.456Z,11.70
2022-11-15T20:16:05.164Z,11.80
2022-11-15T20:20:26.852Z,11.80
2022-11-15T20:24:37.628Z,11.80
2022-11-15T20:28:40.915Z,11.90
2022-11-15T20:32:47.712Z,11.90
2022-11-15T20:36:56.870Z,11.90
2022-11-15T20:41:08.784Z,12.00
2022-11-15T20:45:15.288Z,12.00
2022-11-15T20:49:30.085Z,12.00
2022-11-15T20:54:02.126Z,12.00
2022-11-15T20:58:37.940Z,11.90
2022-11-15T21:02:51.982Z,12.00
2022-11-15T21:07:13.536Z,12.00
2022-11-15T21:11:54.322Z,12.00
2022-11-15T21:45:06.256Z,11.90
2022-11-15T22:01:37.976Z,12.00
2022-11-15T22:06:17.283Z,11.90
2022-11-15T22:10:22.910Z,11.90
2022-11-15T22:14:30.022Z,12.00
2022-11-15T22:18:34.854Z,12.00
2022-11-15T22:22:45.331Z,12.00
2022-11-15T22:26:53.343Z,12.00
2022-11-15T22:30:59.089Z,12.10
2022-11-15T22:35:07.498Z,12.10
2022-11-15T22:39:17.465Z,12.20
2022-11-15T22:43:42.895Z,12.10
2022-11-15T22:48:14.929Z,12.20
2022-11-15T22:52:37.263Z,12.20
2022-11-15T23:10:37.060Z,12.20
2022-11-15T23:33:08.157Z,12.10
2022-11-15T23:39:00.578Z,12.10
2022-11-15T23:44:06.523Z,12.00
2022-11-15T23:52:39.125Z,11.90
2022-11-15T23:56:52.592Z,12.00
